createdAt,value
2017-07-06T00:00:38.345Z,13.47
2017-07-06T00:03:05.560Z,14.10
2017-07-06T00:05:31.993Z,14.43
2017-07-06T00:07:58.534Z,14.23
2017-07-06T00:10:24.990Z,13.87
2017-07-06T00:12:51.361Z,13.27
2017-07-06T00:15:17.745Z,13.50
2017-07-06T00:17:44.110Z,13.10
2017-07-06T00:20:10.461Z,14.53
2017-07-06T00:22:36.829Z,13.40
2017-07-06T00:25:03.217Z,14.37
2017-07-06T00:27:29.579Z,15.00
2017-07-06T00:29:55.947Z,14.60
2017-07-06T00:32:22.298Z,13.90
2017-07-06T00:34:48.645Z,14.10
2017-07-06T00:37:15.006Z,15.43
2017-07-06T00:39:41.363Z,14.17
2017-07-06T00:42:07.733Z,14.20
2017-07-06T00:44:34.104Z,14.50
2017-07-06T00:47:00.458Z,13.37
2017-07-06T00:49:26.807Z,13.47
2017-07-06T00:51:53.163Z,14.23
2017-07-06T00:54:19.522Z,14.00
2017-07-06T00:56:45.867Z,14.83
2017-07-06T00:59:12.231Z,17.27
2017-07-06T01:01:38.599Z,15.13
2017-07-06T01:04:04.958Z,13.20
2017-07-06T01:06:31.313Z,13.67
2017-07-06T01:08:57.672Z,13.50
2017-07-06T01:11:24.050Z,14.13
2017-07-06T01:13:50.405Z,15.50
2017-07-06T01:16:16.793Z,14.37
2017-07-06T01:18:43.121Z,13.93
2017-07-06T01:21:09.474Z,15.03
2017-07-06T01:23:35.888Z,14.43
2017-07-06T01:26:02.248Z,14.17
2017-07-06T01:28:28.613Z,13.33
2017-07-06T01:30:55.014Z,15.07
2017-07-06T01:33:21.384Z,14.57
2017-07-06T01:35:47.746Z,13.50
2017-07-06T01:38:14.123Z,14.97
2017-07-06T01:40:40.549Z,15.10
2017-07-06T01:43:06.960Z,15.53
2017-07-06T01:45:33.392Z,14.33
2017-07-06T01:47:59.771Z,13.13
2017-07-06T01:50:26.159Z,13.90
2017-07-06T01:52:52.534Z,14.13
2017-07-06T01:55:18.934Z,13.73
2017-07-06T01:57:45.373Z,13.77
2017-07-06T02:00:11.792Z,14.60
2017-07-06T02:02:38.168Z,13.87
2017-07-06T02:05:04.535Z,13.67
2017-07-06T02:07:30.902Z,13.87
2017-07-06T02:09:57.289Z,14.13
2017-07-06T02:12:23.630Z,14.60
2017-07-06T02:14:49.971Z,14.17
2017-07-06T02:17:16.417Z,15.60
2017-07-06T02:19:42.844Z,14.97
2017-07-06T02:22:09.225Z,15.40
2017-07-06T02:24:35.566Z,15.70
2017-07-06T02:27:01.941Z,14.03
2017-07-06T02:29:28.308Z,15.00
2017-07-06T02:31:54.645Z,13.60
2017-07-06T02:34:21.000Z,15.60
2017-07-06T02:36:47.361Z,15.87
2017-07-06T02:39:13.706Z,15.87
2017-07-06T02:41:40.075Z,15.60
2017-07-06T02:44:06.429Z,14.60
2017-07-06T02:46:32.772Z,16.23
2017-07-06T02:48:59.093Z,14.47
2017-07-06T02:51:25.438Z,14.03
2017-07-06T02:53:51.787Z,13.20
2017-07-06T02:56:18.150Z,15.13
2017-07-06T02:58:44.531Z,15.00
2017-07-06T03:01:10.863Z,15.13
2017-07-06T03:03:37.210Z,14.80
2017-07-06T03:06:03.574Z,15.73
2017-07-06T03:08:29.954Z,14.40
2017-07-06T03:10:56.357Z,13.40
2017-07-06T03:13:22.792Z,14.17
2017-07-06T03:15:49.197Z,14.00
2017-07-06T03:18:15.565Z,13.60
2017-07-06T03:20:41.939Z,14.50
2017-07-06T03:23:08.288Z,12.00
2017-07-06T03:25:34.678Z,13.37
2017-07-06T03:28:01.044Z,14.90
2017-07-06T03:30:27.452Z,15.37
2017-07-06T03:32:53.828Z,14.23
2017-07-06T03:35:20.211Z,15.97
2017-07-06T03:37:46.581Z,13.93
2017-07-06T03:40:12.952Z,14.30
2017-07-06T03:42:39.320Z,13.97
2017-07-06T03:45:05.671Z,14.67
2017-07-06T03:47:32.054Z,13.90
2017-07-06T03:49:58.434Z,15.90
2017-07-06T03:52:24.789Z,16.10
2017-07-06T03:54:51.119Z,15.40
2017-07-06T03:57:17.491Z,16.60
2017-07-06T03:59:43.864Z,16.20
2017-07-06T04:02:10.219Z,14.50
2017-07-06T04:04:36.556Z,14.73
2017-07-06T04:07:02.969Z,16.27
2017-07-06T04:09:29.299Z,14.47
2017-07-06T04:11:55.672Z,14.80
2017-07-06T04:14:22.005Z,15.40
2017-07-06T04:16:48.376Z,16.80
2017-07-06T04:19:14.777Z,17.67
2017-07-06T04:21:41.112Z,18.13
2017-07-06T04:24:07.471Z,17.03
2017-07-06T04:26:33.842Z,15.97
2017-07-06T04:29:00.210Z,18.87
2017-07-06T04:31:26.548Z,18.47
2017-07-06T04:33:52.888Z,18.47
2017-07-06T04:36:19.245Z,19.07
2017-07-06T04:38:45.619Z,18.47
2017-07-06T04:41:11.984Z,18.83
2017-07-06T04:43:38.332Z,19.90
2017-07-06T04:46:04.678Z,20.60
2017-07-06T04:48:31.058Z,23.50
2017-07-06T04:50:57.376Z,23.20
2017-07-06T04:53:23.764Z,23.17
2017-07-06T04:55:50.153Z,23.07
2017-07-06T04:58:16.532Z,24.13
2017-07-06T05:00:42.878Z,24.60
2017-07-06T05:03:09.242Z,25.00
2017-07-06T05:05:35.597Z,24.83
2017-07-06T05:08:01.941Z,23.43
2017-07-06T05:10:28.299Z,24.03
2017-07-06T05:12:54.708Z,25.23
2017-07-06T05:15:21.073Z,26.33
2017-07-06T05:17:47.411Z,25.87
2017-07-06T05:20:13.770Z,27.73
2017-07-06T05:22:40.108Z,28.03
2017-07-06T05:25:06.491Z,27.30
2017-07-06T05:27:32.855Z,28.87
2017-07-06T05:29:59.192Z,26.10
2017-07-06T05:32:25.537Z,25.23
2017-07-06T05:34:51.901Z,24.53
2017-07-06T05:37:18.271Z,27.63
2017-07-06T05:39:44.632Z,29.43
2017-07-06T05:42:11.033Z,25.83
2017-07-06T05:44:37.429Z,32.10
2017-07-06T05:47:03.791Z,30.60
2017-07-06T05:49:30.159Z,33.30
2017-07-06T05:51:56.519Z,26.60
2017-07-06T05:54:22.934Z,29.30
2017-07-06T05:56:49.319Z,25.30
2017-07-06T05:59:15.757Z,31.27
2017-07-06T06:01:42.217Z,28.57
2017-07-06T06:04:08.650Z,35.83
2017-07-06T06:06:35.103Z,36.70
2017-07-06T06:09:01.471Z,37.53
2017-07-06T06:11:27.864Z,36.40
2017-07-06T06:13:54.224Z,33.70
2017-07-06T06:16:20.636Z,34.87
2017-07-06T06:18:47.077Z,36.67
2017-07-06T06:21:22.516Z,34.23
2017-07-06T06:23:51.065Z,37.13
2017-07-06T06:26:17.529Z,37.03
2017-07-06T06:28:43.906Z,36.77
2017-07-06T06:31:11.160Z,35.47
2017-07-06T06:33:37.502Z,34.03
2017-07-06T06:36:03.875Z,36.87
2017-07-06T06:38:30.223Z,35.33
2017-07-06T06:40:56.600Z,28.80
2017-07-06T06:43:22.947Z,34.37
2017-07-06T06:45:49.345Z,35.30
2017-07-06T06:48:15.712Z,32.57
2017-07-06T06:50:42.081Z,33.30
2017-07-06T06:53:08.465Z,36.60
2017-07-06T06:55:35.053Z,33.10
2017-07-06T06:58:01.410Z,32.83
2017-07-06T07:00:27.763Z,34.40
2017-07-06T07:02:54.126Z,30.20
2017-07-06T07:05:20.523Z,31.70
2017-07-06T07:07:46.900Z,31.90
2017-07-06T07:10:13.289Z,33.60
2017-07-06T07:12:39.709Z,31.97
2017-07-06T07:15:06.115Z,31.40
2017-07-06T07:17:32.489Z,28.80
2017-07-06T07:19:58.819Z,27.70
2017-07-06T07:22:25.158Z,30.43
2017-07-06T07:24:51.512Z,29.63
2017-07-06T07:27:17.902Z,29.20
2017-07-06T07:29:44.493Z,29.47
2017-07-06T07:32:10.851Z,28.50
2017-07-06T07:34:37.210Z,27.30
2017-07-06T07:37:03.578Z,27.43
2017-07-06T07:39:29.966Z,27.33
2017-07-06T07:41:56.325Z,27.03
2017-07-06T07:44:22.704Z,27.70
2017-07-06T07:46:49.128Z,26.13
2017-07-06T07:49:15.564Z,24.20
2017-07-06T07:51:41.926Z,24.50
2017-07-06T07:54:08.273Z,23.60
2017-07-06T07:56:34.657Z,23.53
2017-07-06T07:59:01.062Z,21.67
2017-07-06T08:01:27.408Z,21.30
2017-07-06T08:03:53.790Z,20.57
2017-07-06T08:06:20.185Z,18.37
2017-07-06T08:08:46.543Z,19.40
2017-07-06T08:11:12.946Z,20.67
2017-07-06T08:13:39.325Z,18.80
2017-07-06T08:16:06.122Z,18.13
2017-07-06T08:18:32.815Z,19.00
2017-07-06T08:20:59.204Z,19.70
2017-07-06T08:23:25.568Z,17.57
2017-07-06T08:25:51.929Z,19.00
2017-07-06T08:28:18.312Z,17.17
2017-07-06T08:30:44.694Z,15.80
2017-07-06T08:33:11.091Z,17.40
2017-07-06T08:35:37.459Z,15.60
2017-07-06T08:38:03.836Z,17.67
2017-07-06T08:40:30.534Z,18.93
2017-07-06T08:42:56.891Z,15.17
2017-07-06T08:45:23.290Z,15.67
2017-07-06T08:47:49.723Z,15.80
2017-07-06T08:50:16.085Z,15.67
2017-07-06T08:52:42.470Z,17.13
2017-07-06T08:55:08.869Z,14.70
2017-07-06T08:57:35.224Z,16.70
2017-07-06T09:00:01.618Z,15.90
2017-07-06T09:02:28.039Z,13.60
2017-07-06T09:04:54.381Z,13.90
2017-07-06T09:07:20.797Z,15.10
2017-07-06T09:09:47.157Z,16.10
2017-07-06T09:12:13.570Z,13.50
2017-07-06T09:14:39.993Z,15.30
2017-07-06T09:17:06.408Z,14.53
2017-07-06T09:19:32.877Z,15.40
2017-07-06T09:21:59.286Z,13.17
2017-07-06T09:24:25.669Z,14.13
2017-07-06T09:26:52.031Z,13.37
2017-07-06T09:29:18.457Z,12.67
2017-07-06T09:31:44.849Z,13.87
2017-07-06T09:34:11.226Z,14.00
2017-07-06T09:36:37.613Z,13.60
2017-07-06T09:39:04.104Z,12.60
2017-07-06T09:41:30.449Z,11.70
2017-07-06T09:43:56.873Z,13.43
2017-07-06T09:46:23.256Z,14.27
2017-07-06T09:48:49.618Z,13.30
2017-07-06T09:51:15.969Z,11.40
2017-07-06T09:53:42.355Z,11.30
2017-07-06T09:56:08.725Z,12.53
2017-07-06T09:58:35.093Z,10.77
2017-07-06T10:01:01.462Z,10.33
2017-07-06T10:03:27.817Z,11.30
2017-07-06T10:05:54.210Z,9.83
2017-07-06T10:08:20.583Z,9.93
2017-07-06T10:10:46.961Z,8.93
2017-07-06T10:13:13.316Z,8.40
2017-07-06T10:15:39.695Z,11.23
2017-07-06T10:18:06.045Z,9.30
2017-07-06T10:20:32.415Z,11.00
2017-07-06T10:22:58.792Z,10.03
2017-07-06T10:25:25.156Z,8.70
2017-07-06T10:27:51.570Z,8.43
2017-07-06T10:30:17.921Z,7.53
2017-07-06T10:32:44.317Z,8.27
2017-07-06T10:35:10.674Z,7.80
2017-07-06T10:37:37.022Z,10.33
2017-07-06T10:40:03.388Z,9.30
2017-07-06T10:42:29.783Z,8.27
2017-07-06T10:44:56.169Z,9.63
2017-07-06T10:47:22.571Z,7.90
2017-07-06T10:49:48.952Z,6.97
2017-07-06T10:52:15.301Z,7.80
2017-07-06T10:54:41.686Z,6.80
2017-07-06T10:57:08.077Z,6.83
2017-07-06T10:59:34.445Z,7.90
2017-07-06T11:02:00.794Z,6.93
2017-07-06T11:04:27.158Z,7.17
2017-07-06T11:06:53.517Z,7.90
2017-07-06T11:09:19.900Z,8.77
2017-07-06T11:11:46.279Z,9.03
2017-07-06T11:14:12.713Z,8.40
2017-07-06T11:16:39.111Z,9.27
2017-07-06T11:19:05.494Z,9.23
2017-07-06T11:21:31.871Z,10.10
2017-07-06T11:23:58.262Z,10.13
2017-07-06T11:26:24.667Z,8.97
2017-07-06T11:28:51.300Z,8.63
2017-07-06T11:31:17.777Z,9.00
2017-07-06T11:33:44.160Z,9.63
2017-07-06T11:36:10.547Z,8.27
2017-07-06T11:38:36.942Z,9.17
2017-07-06T11:41:03.323Z,8.33
2017-07-06T11:43:29.729Z,8.27
2017-07-06T11:45:56.149Z,8.10
2017-07-06T11:48:22.512Z,9.50
2017-07-06T11:50:48.888Z,9.30
2017-07-06T11:53:15.323Z,9.30
2017-07-06T11:55:41.715Z,8.30
2017-07-06T11:58:08.109Z,9.00
2017-07-06T12:00:34.527Z,9.17
2017-07-06T12:03:00.899Z,9.07
2017-07-06T12:05:27.292Z,10.17
2017-07-06T12:07:53.687Z,8.73
2017-07-06T12:10:20.100Z,8.67
2017-07-06T12:12:46.503Z,8.80
2017-07-06T12:15:12.951Z,8.00
2017-07-06T12:17:39.334Z,8.77
2017-07-06T12:20:05.696Z,7.20
2017-07-06T12:22:32.052Z,8.40
2017-07-06T12:24:58.473Z,8.30
2017-07-06T12:27:24.931Z,8.97
2017-07-06T12:29:51.429Z,8.20
2017-07-06T12:32:17.857Z,9.67
2017-07-06T12:34:44.299Z,9.37
2017-07-06T12:37:10.659Z,8.27
2017-07-06T12:39:37.131Z,8.37
2017-07-06T12:42:03.517Z,8.57
2017-07-06T12:44:29.909Z,7.03
2017-07-06T12:46:56.349Z,7.37
2017-07-06T12:49:22.877Z,8.50
2017-07-06T12:51:49.489Z,8.70
2017-07-06T12:54:15.873Z,7.20
2017-07-06T12:56:42.258Z,9.13
2017-07-06T12:59:08.668Z,8.10
2017-07-06T13:01:35.066Z,8.10
2017-07-06T13:04:01.442Z,9.33
2017-07-06T13:06:27.835Z,7.63
2017-07-06T13:08:54.249Z,8.80
2017-07-06T13:11:20.716Z,8.77
2017-07-06T13:13:47.084Z,8.17
2017-07-06T13:16:13.557Z,8.00
2017-07-06T13:18:39.967Z,8.20
2017-07-06T13:21:07.317Z,8.50
2017-07-06T13:23:33.705Z,8.23
2017-07-06T13:26:00.192Z,7.47
2017-07-06T13:28:26.561Z,8.13
2017-07-06T13:30:52.931Z,8.17
2017-07-06T13:33:19.325Z,8.50
2017-07-06T13:35:45.810Z,7.03
2017-07-06T13:38:12.241Z,7.77
2017-07-06T13:40:38.589Z,7.90
2017-07-06T13:43:05.567Z,6.80
2017-07-06T13:45:31.948Z,8.03
2017-07-06T13:47:58.461Z,8.73
2017-07-06T13:50:24.860Z,7.30
2017-07-06T13:52:51.260Z,8.07
2017-07-06T13:55:17.680Z,7.30
2017-07-06T13:57:44.087Z,7.40
2017-07-06T14:00:10.510Z,7.97
2017-07-06T14:02:36.962Z,7.83
2017-07-06T14:05:05.787Z,8.83
2017-07-06T14:07:32.291Z,7.37
2017-07-06T14:09:58.770Z,6.57
2017-07-06T14:12:25.168Z,7.03
2017-07-06T14:14:51.612Z,7.27
2017-07-06T14:17:18.012Z,7.20
2017-07-06T14:19:44.411Z,7.37
2017-07-06T14:22:10.796Z,6.50
2017-07-06T14:24:40.861Z,7.57
2017-07-06T14:27:07.322Z,6.50
2017-07-06T14:29:44.631Z,7.50
2017-07-06T14:32:13.003Z,7.50
2017-07-06T14:34:39.406Z,8.03
2017-07-06T14:37:06.621Z,7.40
2017-07-06T14:39:33.342Z,7.43
2017-07-06T14:41:59.735Z,7.07
2017-07-06T14:44:26.170Z,7.00
2017-07-06T14:46:52.603Z,7.40
2017-07-06T14:49:18.985Z,7.50
2017-07-06T14:51:46.260Z,7.00
2017-07-06T14:54:15.465Z,7.27
2017-07-06T14:56:42.107Z,7.60
2017-07-06T14:59:09.575Z,7.17
2017-07-06T15:01:36.535Z,7.67
2017-07-06T15:04:02.925Z,7.77
2017-07-06T15:06:29.340Z,7.50
2017-07-06T15:08:55.706Z,7.70
2017-07-06T15:11:22.061Z,6.33
2017-07-06T15:13:48.405Z,6.63
2017-07-06T15:16:14.944Z,7.37
2017-07-06T15:18:47.578Z,7.23
2017-07-06T15:21:14.795Z,6.97
2017-07-06T15:23:45.170Z,7.00
2017-07-06T15:26:17.383Z,7.53
2017-07-06T15:28:57.437Z,7.20
2017-07-06T15:31:24.718Z,7.10
2017-07-06T15:33:51.260Z,8.00
2017-07-06T15:36:19.443Z,8.07
2017-07-06T15:38:46.077Z,9.67
2017-07-06T15:41:13.220Z,8.30
2017-07-06T15:43:39.852Z,8.93
2017-07-06T15:46:06.262Z,10.00
2017-07-06T15:48:32.800Z,11.70
2017-07-06T15:50:59.427Z,10.83
2017-07-06T15:53:25.935Z,10.87
2017-07-06T15:55:52.342Z,12.33
2017-07-06T15:58:18.970Z,14.17
2017-07-06T16:00:45.507Z,13.97
2017-07-06T16:03:11.927Z,13.23
2017-07-06T16:05:38.287Z,13.17
2017-07-06T16:08:05.518Z,12.60
2017-07-06T16:10:31.992Z,13.50
2017-07-06T16:12:58.414Z,12.80
2017-07-06T16:15:24.818Z,13.53
2017-07-06T16:17:51.190Z,13.43
2017-07-06T16:20:17.557Z,11.50
2017-07-06T16:22:43.965Z,12.43
2017-07-06T16:25:12.301Z,10.97
2017-07-06T16:27:38.680Z,10.90
2017-07-06T16:30:05.198Z,8.30
2017-07-06T16:32:32.507Z,9.53
2017-07-06T16:34:58.886Z,9.50
2017-07-06T16:37:25.287Z,10.60
2017-07-06T16:39:51.731Z,9.60
2017-07-06T16:42:18.188Z,8.43
2017-07-06T16:44:44.645Z,8.90
2017-07-06T16:47:11.253Z,8.60
2017-07-06T16:49:37.673Z,7.87
2017-07-06T16:52:04.803Z,9.20
2017-07-06T16:54:31.291Z,8.73
2017-07-06T16:56:57.663Z,9.00
2017-07-06T16:59:24.630Z,9.57
2017-07-06T17:01:50.991Z,8.57
2017-07-06T17:04:17.411Z,8.93
2017-07-06T17:06:49.428Z,9.87
2017-07-06T17:09:15.792Z,8.93
2017-07-06T17:11:42.205Z,8.80
2017-07-06T17:14:08.580Z,9.10
2017-07-06T17:16:34.958Z,8.43
2017-07-06T17:19:01.413Z,8.60
2017-07-06T17:21:27.828Z,9.27
2017-07-06T17:23:54.679Z,9.47
2017-07-06T17:26:21.157Z,9.40
2017-07-06T17:28:47.659Z,9.03
2017-07-06T17:31:14.063Z,9.70
2017-07-06T17:33:41.620Z,8.43
2017-07-06T17:36:08.370Z,9.20
2017-07-06T17:38:34.885Z,8.70
2017-07-06T17:41:01.441Z,8.73
2017-07-06T17:43:30.730Z,9.63
2017-07-06T17:45:57.160Z,8.50
2017-07-06T17:48:23.549Z,9.13
2017-07-06T17:50:49.928Z,9.03
2017-07-06T17:53:16.329Z,9.10
2017-07-06T17:55:42.693Z,8.60
2017-07-06T17:58:09.087Z,8.20
2017-07-06T18:00:35.477Z,10.10
2017-07-06T18:03:01.930Z,9.70
2017-07-06T18:05:28.311Z,9.03
2017-07-06T18:07:54.702Z,9.33
2017-07-06T18:10:21.038Z,9.27
2017-07-06T18:12:47.408Z,9.80
2017-07-06T18:15:13.813Z,8.20
2017-07-06T18:17:40.190Z,8.83
2017-07-06T18:20:06.574Z,8.63
2017-07-06T18:22:32.957Z,8.80
2017-07-06T18:24:59.331Z,8.90
2017-07-06T18:27:25.713Z,9.07
2017-07-06T18:29:52.920Z,9.30
2017-07-06T18:32:19.294Z,9.17
2017-07-06T18:34:45.706Z,9.00
2017-07-06T18:37:12.120Z,9.30
2017-07-06T18:39:38.557Z,8.50
2017-07-06T18:42:04.955Z,8.80
2017-07-06T18:44:31.354Z,8.73
2017-07-06T18:46:58.078Z,9.17
2017-07-06T18:49:24.444Z,9.27
2017-07-06T18:51:50.895Z,9.13
2017-07-06T18:54:17.234Z,9.60
2017-07-06T18:56:43.570Z,8.73
2017-07-06T18:59:09.981Z,7.70
2017-07-06T19:01:36.374Z,7.07
2017-07-06T19:04:02.728Z,6.40
2017-07-06T19:06:29.138Z,6.60
2017-07-06T19:08:55.550Z,5.77
2017-07-06T19:11:21.950Z,5.77
2017-07-06T19:13:48.353Z,6.53
2017-07-06T19:16:14.741Z,6.50
2017-07-06T19:18:41.094Z,6.20
2017-07-06T19:21:07.507Z,6.40
2017-07-06T19:23:33.901Z,7.50
2017-07-06T19:26:01.826Z,6.77
2017-07-06T19:28:29.677Z,7.60
2017-07-06T19:30:56.123Z,6.30
2017-07-06T19:33:22.499Z,6.60
2017-07-06T19:35:48.854Z,7.00
2017-07-06T19:38:15.252Z,7.30
2017-07-06T19:40:41.661Z,6.97
2017-07-06T19:43:08.021Z,7.10
2017-07-06T19:45:34.421Z,6.40
2017-07-06T19:48:04.210Z,6.93
2017-07-06T19:50:30.770Z,7.57
2017-07-06T19:52:57.195Z,7.27
2017-07-06T19:55:23.667Z,6.20
2017-07-06T19:57:50.056Z,6.13
2017-07-06T20:00:19.863Z,6.57
2017-07-06T20:02:50.485Z,6.70
2017-07-06T20:05:17.093Z,7.20
2017-07-06T20:07:43.494Z,6.30
2017-07-06T20:10:09.897Z,6.70
2017-07-06T20:12:36.327Z,6.30
2017-07-06T20:15:02.708Z,6.77
2017-07-06T20:18:10.493Z,6.87
2017-07-06T20:20:36.932Z,6.77
2017-07-06T20:23:03.386Z,7.30
2017-07-06T20:25:29.768Z,6.50
2017-07-06T20:27:56.106Z,6.93
2017-07-06T20:30:22.476Z,6.93
2017-07-06T20:32:48.850Z,6.40
2017-07-06T20:35:15.293Z,6.10
2017-07-06T20:37:41.682Z,6.10
2017-07-06T20:40:08.144Z,6.57
2017-07-06T20:42:34.529Z,6.67
2017-07-06T20:45:00.920Z,6.57
2017-07-06T20:47:27.331Z,6.50
2017-07-06T20:49:53.657Z,6.87
2017-07-06T20:52:20.025Z,7.17
2017-07-06T20:54:46.366Z,7.73
2017-07-06T20:57:12.803Z,7.33
2017-07-06T20:59:39.177Z,6.63
2017-07-06T21:02:05.558Z,6.13
2017-07-06T21:04:31.942Z,6.67
2017-07-06T21:06:58.333Z,5.80
2017-07-06T21:09:24.730Z,5.83
2017-07-06T21:11:51.127Z,6.40
2017-07-06T21:14:17.515Z,6.53
2017-07-06T21:16:43.873Z,6.47
2017-07-06T21:19:10.248Z,7.10
2017-07-06T21:21:36.648Z,6.20
2017-07-06T21:24:03.178Z,6.50
2017-07-06T21:26:29.542Z,9.27
2017-07-06T21:28:55.974Z,11.20
2017-07-06T21:31:22.341Z,10.83
2017-07-06T21:33:48.804Z,9.30
2017-07-06T21:36:15.209Z,10.63
2017-07-06T21:38:41.590Z,10.97
2017-07-06T21:41:07.938Z,12.03
2017-07-06T21:43:34.386Z,11.50
2017-07-06T21:46:00.783Z,11.10
2017-07-06T21:48:27.150Z,12.40
2017-07-06T21:50:53.542Z,10.30
2017-07-06T21:53:19.963Z,10.20
2017-07-06T21:55:46.404Z,15.03
2017-07-06T21:58:12.816Z,11.27
2017-07-06T22:00:39.844Z,12.13
2017-07-06T22:03:06.260Z,11.60
2017-07-06T22:05:32.645Z,12.00
2017-07-06T22:07:59.640Z,13.80
2017-07-06T22:10:27.449Z,11.90
2017-07-06T22:12:53.838Z,14.73
2017-07-06T22:15:20.200Z,13.30
2017-07-06T22:17:46.796Z,13.43
2017-07-06T22:20:13.169Z,16.97
2017-07-06T22:22:39.590Z,13.13
2017-07-06T22:25:06.309Z,15.17
2017-07-06T22:27:33.236Z,12.90
2017-07-06T22:29:59.605Z,15.97
2017-07-06T22:32:25.948Z,15.90
2017-07-06T22:34:52.823Z,17.10
2017-07-06T22:37:19.203Z,15.97
2017-07-06T22:39:45.590Z,19.27
2017-07-06T22:42:11.994Z,17.80
2017-07-06T22:44:38.730Z,18.57
2017-07-06T22:47:05.142Z,16.13
2017-07-06T22:49:31.509Z,18.47
2017-07-06T22:51:58.000Z,27.50
2017-07-06T22:54:24.456Z,30.20
2017-07-06T22:56:50.885Z,32.50
2017-07-06T22:59:17.243Z,35.90
2017-07-06T23:01:43.621Z,33.57
2017-07-06T23:04:09.965Z,37.70
2017-07-06T23:06:36.288Z,39.43
2017-07-06T23:09:02.790Z,43.17
2017-07-06T23:11:29.147Z,42.37
2017-07-06T23:13:55.517Z,44.27
2017-07-06T23:16:21.892Z,40.87
2017-07-06T23:18:48.320Z,39.80
2017-07-06T23:21:14.711Z,36.23
2017-07-06T23:23:41.068Z,37.23
2017-07-06T23:26:07.430Z,35.37
2017-07-06T23:28:33.785Z,37.10
2017-07-06T23:31:00.177Z,35.67
2017-07-06T23:33:26.510Z,39.60
2017-07-06T23:35:52.882Z,34.73
2017-07-06T23:38:19.242Z,36.43
2017-07-06T23:40:46.610Z,34.60
2017-07-06T23:43:13.076Z,36.80
2017-07-06T23:45:39.557Z,36.90
2017-07-06T23:48:05.957Z,37.10
2017-07-06T23:50:32.397Z,36.80
2017-07-06T23:52:58.758Z,34.77
2017-07-06T23:55:25.120Z,37.73
2017-07-06T23:57:51.512Z,35.47
